PAS419 WIII-WITT
Flight info
| Callsign | PAS419 |
|---|---|
| Flight time | N/A |
| Altitude | 38000 |
| Route | GOMEL1C GOMEL T10 OPUNG OPUNG1K |
| Aircraft | A20N/M-SDE2E3FGHIRWXY/LB1 |
Departure
| Time | N/A |
|---|---|
| Airport | Soekarno-Hatta International Airport (WIII) |
Arrival
| Time | 2026-04-14 13:57 |
|---|---|
| Airport | Sultan Iskandar Muda International Airport (WITT) |
| Time | Latitude | Longitude | Altitude | Speed | Heading |
|---|---|---|---|---|---|
| 2026-04-14 13:03 | 1.95770 | 99.40486 | 37993 ft | 453 kts | 317° |
| 2026-04-14 13:03 | 2.00359 | 99.36214 | 37996 ft | 454 kts | 317° |
| 2026-04-14 13:04 | 2.04983 | 99.31906 | 38001 ft | 454 kts | 317° |
| 2026-04-14 13:04 | 2.09601 | 99.27605 | 38000 ft | 454 kts | 317° |
| 2026-04-14 13:05 | 2.14225 | 99.23297 | 37995 ft | 454 kts | 317° |
| 2026-04-14 13:05 | 2.18824 | 99.19016 | 38005 ft | 454 kts | 317° |
| 2026-04-14 13:06 | 2.23445 | 99.14716 | 38019 ft | 454 kts | 317° |
| 2026-04-14 13:06 | 2.28071 | 99.10410 | 38009 ft | 454 kts | 317° |
| 2026-04-14 13:07 | 2.32686 | 99.06104 | 38020 ft | 454 kts | 317° |
| 2026-04-14 13:07 | 2.37302 | 99.01801 | 38020 ft | 454 kts | 317° |
| 2026-04-14 13:08 | 2.41928 | 98.97493 | 38015 ft | 454 kts | 317° |
| 2026-04-14 13:08 | 2.46562 | 98.93180 | 38010 ft | 454 kts | 317° |
| 2026-04-14 13:09 | 2.51190 | 98.88872 | 38012 ft | 455 kts | 317° |
| 2026-04-14 13:09 | 2.55813 | 98.84569 | 38011 ft | 455 kts | 317° |
| 2026-04-14 13:10 | 2.60452 | 98.80240 | 38014 ft | 455 kts | 317° |
| 2026-04-14 13:10 | 2.65085 | 98.75910 | 38009 ft | 456 kts | 317° |
| 2026-04-14 13:11 | 2.69721 | 98.71592 | 38015 ft | 456 kts | 317° |
| 2026-04-14 13:11 | 2.74362 | 98.67261 | 38017 ft | 456 kts | 317° |
| 2026-04-14 13:12 | 2.78997 | 98.62935 | 38001 ft | 456 kts | 317° |
| 2026-04-14 13:12 | 2.83649 | 98.58599 | 38004 ft | 456 kts | 317° |
| 2026-04-14 13:13 | 2.88290 | 98.54282 | 38010 ft | 456 kts | 317° |
| 2026-04-14 13:13 | 2.92909 | 98.49979 | 37987 ft | 456 kts | 317° |
| 2026-04-14 13:14 | 3.02643 | 98.40890 | 37984 ft | 455 kts | 317° |
| 2026-04-14 13:15 | 3.07275 | 98.36570 | 37994 ft | 455 kts | 317° |
| 2026-04-14 13:15 | 3.11919 | 98.32242 | 37978 ft | 454 kts | 317° |
| 2026-04-14 13:16 | 3.15751 | 98.28663 | 37969 ft | 454 kts | 317° |
| 2026-04-14 13:16 | 3.20368 | 98.24344 | 37967 ft | 455 kts | 317° |
| 2026-04-14 13:17 | 3.24994 | 98.20025 | 37966 ft | 455 kts | 317° |
| 2026-04-14 13:17 | 3.29627 | 98.15694 | 37958 ft | 455 kts | 317° |
| 2026-04-14 13:18 | 3.34258 | 98.11380 | 37951 ft | 456 kts | 317° |
| 2026-04-14 13:18 | 3.38906 | 98.07050 | 37952 ft | 456 kts | 317° |
| 2026-04-14 13:19 | 3.43554 | 98.02704 | 37951 ft | 457 kts | 317° |
| 2026-04-14 13:19 | 3.48185 | 97.98375 | 37964 ft | 458 kts | 317° |
| 2026-04-14 13:20 | 3.52838 | 97.94025 | 37975 ft | 458 kts | 317° |
| 2026-04-14 13:20 | 3.57497 | 97.89670 | 37976 ft | 458 kts | 317° |
| 2026-04-14 13:21 | 3.67322 | 97.80489 | 37994 ft | 459 kts | 317° |
| 2026-04-14 13:22 | 3.72004 | 97.76115 | 38001 ft | 459 kts | 317° |
| 2026-04-14 13:22 | 3.76668 | 97.71755 | 38002 ft | 460 kts | 317° |
| 2026-04-14 13:23 | 3.81276 | 97.67451 | 38009 ft | 460 kts | 317° |
| 2026-04-14 13:23 | 3.85970 | 97.63051 | 38018 ft | 459 kts | 317° |
| 2026-04-14 13:24 | 3.90617 | 97.58701 | 38026 ft | 460 kts | 317° |
| 2026-04-14 13:24 | 3.97609 | 97.52164 | 38027 ft | 459 kts | 317° |
| 2026-04-14 13:25 | 4.02285 | 97.47777 | 38026 ft | 459 kts | 317° |
| 2026-04-14 13:26 | 4.11622 | 97.39040 | 38028 ft | 459 kts | 317° |
| 2026-04-14 13:26 | 4.16289 | 97.34672 | 38023 ft | 459 kts | 317° |
| 2026-04-14 13:27 | 4.20970 | 97.30300 | 38019 ft | 459 kts | 317° |
| 2026-04-14 13:27 | 4.25637 | 97.25926 | 38017 ft | 460 kts | 317° |
| 2026-04-14 13:28 | 4.30295 | 97.21556 | 38025 ft | 459 kts | 317° |
| 2026-04-14 13:28 | 4.34956 | 97.17192 | 38021 ft | 459 kts | 317° |
| 2026-04-14 13:29 | 4.39613 | 97.12831 | 38020 ft | 458 kts | 317° |
| 2026-04-14 13:29 | 4.43481 | 97.09194 | 38019 ft | 458 kts | 317° |
| 2026-04-14 13:30 | 4.48921 | 97.04089 | 38021 ft | 458 kts | 317° |
| 2026-04-14 13:30 | 4.52588 | 97.00285 | 38014 ft | 458 kts | 307° |
| 2026-04-14 13:31 | 4.56057 | 96.94904 | 38000 ft | 459 kts | 302° |
| 2026-04-14 13:31 | 4.60023 | 96.88609 | 37997 ft | 460 kts | 303° |
| 2026-04-14 13:32 | 4.62887 | 96.84077 | 37999 ft | 460 kts | 303° |
| 2026-04-14 13:32 | 4.66316 | 96.78652 | 37995 ft | 460 kts | 303° |
| 2026-04-14 13:33 | 4.69713 | 96.73253 | 37992 ft | 461 kts | 302° |
| 2026-04-14 13:33 | 4.73131 | 96.67810 | 37853 ft | 463 kts | 302° |
| 2026-04-14 13:34 | 4.76561 | 96.62353 | 37335 ft | 463 kts | 302° |
| 2026-04-14 13:34 | 4.78287 | 96.59616 | 37073 ft | 463 kts | 302° |
| 2026-04-14 13:34 | 4.80011 | 96.56882 | 36828 ft | 464 kts | 302° |
| 2026-04-14 13:35 | 4.81733 | 96.54146 | 36573 ft | 464 kts | 302° |
| 2026-04-14 13:35 | 4.83454 | 96.51413 | 36334 ft | 464 kts | 302° |
| 2026-04-14 13:35 | 4.85160 | 96.48702 | 36012 ft | 465 kts | 302° |
| 2026-04-14 13:35 | 4.86910 | 96.45919 | 35270 ft | 466 kts | 302° |
| 2026-04-14 13:36 | 4.88607 | 96.43221 | 34750 ft | 461 kts | 302° |
| 2026-04-14 13:36 | 4.90310 | 96.40512 | 34166 ft | 459 kts | 302° |
| 2026-04-14 13:36 | 4.92007 | 96.37809 | 33551 ft | 456 kts | 302° |
| 2026-04-14 13:36 | 4.93685 | 96.35136 | 32989 ft | 451 kts | 302° |
| 2026-04-14 13:37 | 4.95346 | 96.32483 | 32413 ft | 448 kts | 302° |
| 2026-04-14 13:37 | 4.96999 | 96.29846 | 31838 ft | 444 kts | 302° |
| 2026-04-14 13:37 | 4.98637 | 96.27238 | 31294 ft | 441 kts | 302° |
| 2026-04-14 13:37 | 5.00691 | 96.23977 | 30605 ft | 437 kts | 302° |
| 2026-04-14 13:38 | 5.01872 | 96.22107 | 30216 ft | 435 kts | 302° |
| 2026-04-14 13:38 | 5.03482 | 96.19551 | 29627 ft | 432 kts | 302° |
| 2026-04-14 13:38 | 5.05072 | 96.17020 | 29113 ft | 426 kts | 302° |
| 2026-04-14 13:38 | 5.06643 | 96.14517 | 28611 ft | 421 kts | 302° |
| 2026-04-14 13:39 | 5.08194 | 96.12042 | 28130 ft | 416 kts | 302° |
| 2026-04-14 13:39 | 5.09684 | 96.09613 | 27668 ft | 412 kts | 301° |
| 2026-04-14 13:39 | 5.11155 | 96.07163 | 27186 ft | 407 kts | 301° |
| 2026-04-14 13:39 | 5.12594 | 96.04742 | 26743 ft | 403 kts | 301° |
| 2026-04-14 13:40 | 5.14026 | 96.02332 | 26292 ft | 399 kts | 301° |
| 2026-04-14 13:40 | 5.15443 | 95.99956 | 25845 ft | 396 kts | 301° |
| 2026-04-14 13:40 | 5.16855 | 95.97595 | 25372 ft | 393 kts | 301° |
| 2026-04-14 13:40 | 5.18261 | 95.95252 | 24903 ft | 390 kts | 301° |
| 2026-04-14 13:41 | 5.19662 | 95.92924 | 24423 ft | 389 kts | 301° |
| 2026-04-14 13:41 | 5.21057 | 95.90614 | 23936 ft | 387 kts | 301° |
| 2026-04-14 13:41 | 5.22447 | 95.88309 | 23423 ft | 386 kts | 301° |
| 2026-04-14 13:41 | 5.23883 | 95.86046 | 22873 ft | 383 kts | 308° |
| 2026-04-14 13:42 | 5.30234 | 95.81657 | 21423 ft | 372 kts | 340° |
| 2026-04-14 13:42 | 5.32662 | 95.80771 | 20944 ft | 370 kts | 340° |
| 2026-04-14 13:43 | 5.35076 | 95.79882 | 20469 ft | 368 kts | 340° |
| 2026-04-14 13:43 | 5.37473 | 95.78997 | 19996 ft | 366 kts | 340° |
| 2026-04-14 13:43 | 5.39829 | 95.78128 | 19534 ft | 365 kts | 340° |
| 2026-04-14 13:43 | 5.42233 | 95.77240 | 19071 ft | 363 kts | 340° |
| 2026-04-14 13:44 | 5.44573 | 95.76376 | 18607 ft | 362 kts | 340° |
| 2026-04-14 13:44 | 5.46937 | 95.75506 | 18138 ft | 362 kts | 340° |
| 2026-04-14 13:44 | 5.49295 | 95.74638 | 17646 ft | 360 kts | 340° |
| 2026-04-14 13:44 | 5.51607 | 95.73787 | 17200 ft | 357 kts | 340° |
| 2026-04-14 13:45 | 5.53951 | 95.72924 | 16745 ft | 355 kts | 340° |
| 2026-04-14 13:45 | 5.56265 | 95.72076 | 16314 ft | 353 kts | 340° |
| 2026-04-14 13:45 | 5.58559 | 95.71234 | 15874 ft | 351 kts | 340° |
| 2026-04-14 13:46 | 5.63604 | 95.69374 | 14926 ft | 347 kts | 340° |
| 2026-04-14 13:46 | 5.65871 | 95.68538 | 14489 ft | 345 kts | 341° |
| 2026-04-14 13:46 | 5.68116 | 95.67712 | 14072 ft | 344 kts | 341° |
| 2026-04-14 13:46 | 5.69592 | 95.67135 | 13789 ft | 343 kts | 335° |
| 2026-04-14 13:47 | 5.71895 | 95.65597 | 13237 ft | 343 kts | 317° |
| 2026-04-14 13:47 | 5.73430 | 95.63782 | 12800 ft | 340 kts | 307° |
| 2026-04-14 13:47 | 5.74841 | 95.61889 | 12413 ft | 336 kts | 307° |
| 2026-04-14 13:47 | 5.76238 | 95.60024 | 11985 ft | 333 kts | 307° |
| 2026-04-14 13:48 | 5.79104 | 95.56216 | 11213 ft | 317 kts | 308° |
| 2026-04-14 13:48 | 5.80425 | 95.54472 | 10681 ft | 309 kts | 308° |
| 2026-04-14 13:48 | 5.81703 | 95.52789 | 10241 ft | 297 kts | 308° |
| 2026-04-14 13:49 | 5.82933 | 95.51169 | 9837 ft | 286 kts | 308° |
| 2026-04-14 13:49 | 5.84047 | 95.49565 | 9410 ft | 276 kts | 297° |
| 2026-04-14 13:49 | 5.84619 | 95.47745 | 9021 ft | 273 kts | 276° |
| 2026-04-14 13:49 | 5.84542 | 95.45885 | 8603 ft | 263 kts | 257° |
| 2026-04-14 13:50 | 5.84047 | 95.44179 | 8200 ft | 253 kts | 253° |
| 2026-04-14 13:50 | 5.83539 | 95.42486 | 7812 ft | 249 kts | 253° |
| 2026-04-14 13:50 | 5.83042 | 95.40815 | 7403 ft | 250 kts | 254° |
| 2026-04-14 13:50 | 5.82547 | 95.39135 | 7003 ft | 251 kts | 254° |
| 2026-04-14 13:51 | 5.81884 | 95.37548 | 6606 ft | 244 kts | 232° |
| 2026-04-14 13:51 | 5.80570 | 95.36583 | 6198 ft | 237 kts | 197° |
| 2026-04-14 13:51 | 5.78967 | 95.36504 | 5791 ft | 230 kts | 170° |
| 2026-04-14 13:51 | 5.77420 | 95.36828 | 5398 ft | 225 kts | 167° |
| 2026-04-14 13:52 | 5.75911 | 95.37161 | 5020 ft | 220 kts | 167° |
| 2026-04-14 13:52 | 5.74432 | 95.37471 | 4674 ft | 214 kts | 168° |
| 2026-04-14 13:52 | 5.73008 | 95.37766 | 4412 ft | 207 kts | 168° |
| 2026-04-14 13:52 | 5.71634 | 95.38049 | 4305 ft | 195 kts | 168° |
| 2026-04-14 13:53 | 5.70344 | 95.38315 | 4171 ft | 184 kts | 168° |
| 2026-04-14 13:53 | 5.69138 | 95.38564 | 4045 ft | 169 kts | 168° |
| 2026-04-14 13:53 | 5.68039 | 95.38791 | 3873 ft | 156 kts | 168° |
| 2026-04-14 13:53 | 5.66989 | 95.39008 | 3580 ft | 153 kts | 168° |
| 2026-04-14 13:54 | 5.65941 | 95.39224 | 3254 ft | 153 kts | 168° |
| 2026-04-14 13:54 | 5.64902 | 95.39439 | 2931 ft | 152 kts | 168° |
| 2026-04-14 13:54 | 5.63856 | 95.39655 | 2488 ft | 158 kts | 168° |
| 2026-04-14 13:54 | 5.62743 | 95.39885 | 1975 ft | 168 kts | 168° |
| 2026-04-14 13:55 | 5.61607 | 95.40119 | 1635 ft | 164 kts | 168° |
| 2026-04-14 13:55 | 5.60522 | 95.40343 | 1399 ft | 152 kts | 168° |
| 2026-04-14 13:55 | 5.59524 | 95.40549 | 1194 ft | 147 kts | 168° |
| 2026-04-14 13:55 | 5.58513 | 95.40758 | 1005 ft | 147 kts | 168° |
| 2026-04-14 13:56 | 5.57515 | 95.40964 | 822 ft | 146 kts | 168° |
| 2026-04-14 13:56 | 5.56958 | 95.41079 | 722 ft | 146 kts | 168° |
| 2026-04-14 13:56 | 5.55985 | 95.41280 | 537 ft | 145 kts | 168° |
| 2026-04-14 13:56 | 5.54997 | 95.41484 | 347 ft | 145 kts | 168° |
| 2026-04-14 13:57 | 5.54011 | 95.41688 | 162 ft | 144 kts | 168° |
| 2026-04-14 13:57 | 5.53078 | 95.41884 | 65 ft | 110 kts | 173° |
| 2026-04-14 13:57 | 5.52610 | 95.41975 | 72 ft | 42 kts | 168° |
| 2026-04-14 13:57 | 5.52337 | 95.42030 | 77 ft | 38 kts | 168° |
| 2026-04-14 13:58 | 5.52106 | 95.42077 | 67 ft | 29 kts | 168° |
| 2026-04-14 13:58 | 5.52000 | 95.42030 | 73 ft | 17 kts | 258° |
| 2026-04-14 13:58 | 5.51942 | 95.41943 | 72 ft | 14 kts | 180° |
| 2026-04-14 13:58 | 5.51851 | 95.41946 | 75 ft | 9 kts | 224° |
| 2026-04-14 13:59 | 5.51845 | 95.41899 | 74 ft | 6 kts | 269° |
| 2026-04-14 13:59 | 5.51838 | 95.41860 | 75 ft | 5 kts | 258° |
| 2026-04-14 13:59 | 5.51832 | 95.41831 | 72 ft | 2 kts | 258° |
| 2026-04-14 14:00 | 5.51830 | 95.41822 | 67 ft | 0 kts | 258° |